Terminal Aerodrome Forecast
Issued by NWS

Home | Current Version | Previous Version | Graphics & Text | Print | Product List | Glossary On
Versions: 1 2 3 4 5 6 7 8 9 10 11 12 13 14 15 16 17 18 19 20 21 22 23 24
000
FTUS41 KCLE 160400 AAB
TAFFDY
TAF AMD
KFDY 160402Z 1604/1624 33005KT P6SM SCT025 BKN050
      TEMPO 1604/1606 -SHRA SCT009 BKN028
     FM160800 33004KT 4SM BR BKN006
     FM161300 32004KT P6SM BKN015
     FM162000 33004KT P6SM SCT030=

USA.gov is the U.S. government's official web portal to all federal, state and local government web resources and services.